Thursday, January 17, 2019, 8:47 PM EST
Back to Local

KGTB, Fort Drum / Wheeler-sack U. S. Army Airfield

Location: Fort Drum, NY, United States Lat: 44.05
Local Time: 8:47 PM EST ( 1:47 GMT) Lon: -75.733
Time Zone: US/Eastern Elev: 679 ft

Show me the last for .
Show Decoded

2019-01-17 19:56 METAR KGTB 180056Z AUTO 10004KT 10SM OVC055 M11/M17 A3016 RMK AO2 SLP232
                 T11091166 =
2019-01-17 18:56 METAR KGTB 172356Z 09004KT 10SM FEW095 M11/M18 A3018 RMK AO2A SLP238 4/005
                 T11141179 11098 21119 57018 =
2019-01-17 17:56 METAR KGTB 172256Z AUTO 10004KT 10SM BKN100 M11/M18 A3020 RMK AO2 SLP245
                 T11121179 =
2019-01-17 16:56 METAR KGTB 172156Z AUTO 12003KT 10SM OVC120 M11/M17 A3021 RMK AO2 SLP248
                 T11081175 =
2019-01-17 15:56 METAR KGTB 172056Z AUTO 05003KT 10SM FEW110 OVC140 M10/M18 A3023 RMK AO2 SLP255
                 T11001180 57026 =
2019-01-17 14:56 METAR KGTB 171956Z AUTO 03004KT 10SM FEW200 M10/M18 A3025 RMK AO2 SLP262
                 T11011177 =
2019-01-17 13:56 METAR KGTB 171856Z AUTO 00000KT 10SM FEW140 FEW190 M10/M18 A3028 RMK AO2 SLP271
                 T11041182 =
2019-01-17 12:56 METAR KGTB 171756Z 00000KT 10SM CLR M11/M18 A3031 RMK AO2A SLP281 4/005
                 T11101179 11109 21216 58023 =
2019-01-17 11:56 METAR KGTB 171656Z AUTO 00000KT 10SM FEW160 M12/M19 A3034 RMK AO2 SLP292
                 T11251195 =
2019-01-17 10:56 METAR KGTB 171556Z AUTO 13004KT 10SM CLR M14/M20 A3038 RMK AO2 SLP306 T11441205
                 =
2019-01-17 09:56 METAR KGTB 171456Z AUTO 13010KT 10SM CLR M17/M22 A3038 RMK AO2 SLP307 T11711225
                 58000 =
2019-01-17 08:56 METAR KGTB 171356Z AUTO 12011KT 10SM CLR M20/M24 A3038 RMK AO2 SLP307 T11991244
                 =
2019-01-17 07:56 METAR KGTB 171256Z AUTO 13008KT 10SM CLR M21/M26 A3038 RMK AO2 SLP307 T12151256
                 =
2019-01-17 06:56 METAR KGTB 171156Z COR 14006KT 10SM CLR M21/M24 A3038 RMK AO2 SLPNO 70001 4/005
                 T12091244 11174 21210 52011 COR 1231 =
2019-01-17 05:56 METAR KGTB 171056Z AUTO 13004KT 10SM CLR M21/M25 A3037 RMK AO2 SLP302 T12081246
                 =
2019-01-17 04:56 METAR KGTB 170956Z AUTO 13005KT 10SM CLR M20/M24 A3035 RMK AO2 SLP294 T11991245
                 =
2019-01-17 03:56 METAR KGTB 170856Z AUTO 14004KT 5SM M CLR M19/M23 A3035 RMK AO2 SLP292 T11911229
                 51009 $ =
2019-01-17 02:56 METAR KGTB 170756Z AUTO 12004KT 10SM CLR M20/M23 A3034 RMK AO2 SLP289 T11991231
                 =
2019-01-17 01:56 METAR KGTB 170656Z AUTO 18003KT 10SM CLR M17/M23 A3034 RMK AO2 SLP288 T11751229
                 =
2019-01-17 00:56 METAR KGTB 170556Z COR 07005KT 10SM CLR M18/M22 A3032 RMK AO2 SLP282 4/005
                 T11761225 11114 21180 52014 COR 0647 =
2019-01-16 23:56 METAR KGTB 170456Z AUTO 07005KT 10SM CLR M17/M22 A3031 RMK AO2 SLP278 T11721223
                 400051172 =
2019-01-16 22:56 METAR KGTB 170356Z AUTO 03007KT 10SM CLR M16/M22 A3030 RMK AO2 SLP274 T11641220
                 =
2019-01-16 21:56 METAR KGTB 170256Z AUTO 05004KT 10SM CLR M15/M21 A3028 RMK AO2 SLP267 T11501211
                 =
2019-01-16 20:56 METAR KGTB 170156Z AUTO 03007KT 10SM CLR M14/M21 A3025 RMK AO2 SLP257 T11421213
                 =

Support USWX by starting your Amazon purchase here.